createdAt,value
2022-12-24T00:01:33.596Z,1.20
2022-12-24T00:04:01.424Z,1.87
2022-12-24T00:06:29.403Z,1.50
2022-12-24T00:08:59.573Z,1.80
2022-12-24T00:11:27.492Z,1.17
2022-12-24T00:13:55.412Z,1.00
2022-12-24T00:16:24.616Z,1.00
2022-12-24T00:18:54.910Z,1.57
2022-12-24T00:21:22.883Z,1.70
2022-12-24T00:23:50.800Z,1.40
2022-12-24T00:26:18.739Z,1.80
2022-12-24T00:29:26.487Z,1.90
2022-12-24T00:32:54.462Z,1.27
2022-12-24T00:35:32.692Z,1.40
2022-12-24T00:38:00.621Z,1.63
2022-12-24T00:40:28.486Z,1.27
2022-12-24T00:42:56.313Z,1.60
2022-12-24T00:45:24.543Z,1.10
2022-12-24T00:47:53.809Z,1.70
2022-12-24T00:50:21.932Z,1.57
2022-12-24T00:52:49.825Z,1.07
2022-12-24T00:55:17.844Z,1.50
2022-12-24T00:57:45.974Z,1.73
2022-12-24T01:00:16.019Z,1.17
2022-12-24T01:02:44.657Z,1.43
2022-12-24T01:05:13.206Z,1.70
2022-12-24T01:07:44.568Z,1.20
2022-12-24T01:10:14.235Z,1.10
2022-12-24T01:12:44.674Z,1.10
2022-12-24T01:15:14.561Z,1.30
2022-12-24T01:17:42.617Z,1.60
2022-12-24T01:20:17.563Z,1.23
2022-12-24T01:22:46.178Z,1.70
2022-12-24T01:25:14.178Z,1.50
2022-12-24T01:27:45.012Z,1.90
2022-12-24T01:30:15.918Z,1.60
2022-12-24T01:32:44.067Z,1.50
2022-12-24T01:35:12.611Z,1.93
2022-12-24T01:37:43.629Z,2.10
2022-12-24T01:40:34.017Z,1.83
2022-12-24T01:43:19.198Z,2.20
2022-12-24T01:45:49.673Z,1.93
2022-12-24T01:48:24.249Z,1.47
2022-12-24T01:50:58.837Z,1.80
2022-12-24T01:53:28.478Z,1.97
2022-12-24T01:55:56.963Z,1.57
2022-12-24T01:58:27.496Z,1.93
2022-12-24T02:00:56.056Z,2.00
2022-12-24T02:03:26.617Z,1.93
2022-12-24T02:05:58.382Z,1.70
2022-12-24T02:08:39.793Z,1.50
2022-12-24T02:11:15.872Z,2.00
2022-12-24T02:13:47.305Z,2.60
2022-12-24T02:16:30.731Z,2.10
2022-12-24T02:19:11.513Z,1.90
2022-12-24T02:21:49.663Z,2.27
2022-12-24T02:25:04.514Z,1.60
2022-12-24T02:27:43.421Z,2.10
2022-12-24T02:30:19.711Z,1.80
2022-12-24T02:33:01.972Z,1.63
2022-12-24T02:35:38.496Z,1.70
2022-12-24T02:38:14.989Z,1.90
2022-12-24T02:40:47.903Z,1.57
2022-12-24T02:43:21.656Z,1.57
2022-12-24T02:45:59.525Z,2.00
2022-12-24T02:48:31.707Z,2.00
2022-12-24T02:51:03.828Z,1.50
2022-12-24T02:53:35.421Z,1.73
2022-12-24T02:56:25.012Z,1.90
2022-12-24T02:59:13.375Z,2.23
2022-12-24T03:01:52.426Z,1.57
2022-12-24T03:04:39.427Z,2.57
2022-12-24T03:07:16.447Z,1.50
2022-12-24T03:10:00.702Z,1.97
2022-12-24T03:12:33.315Z,1.30
2022-12-24T03:15:02.434Z,1.50
2022-12-24T03:17:35.976Z,1.50
2022-12-24T03:20:05.520Z,1.17
2022-12-24T03:22:35.432Z,1.67
2022-12-24T03:25:04.293Z,1.50
2022-12-24T03:27:34.617Z,1.70
2022-12-24T03:30:04.450Z,1.40
2022-12-24T03:32:34.013Z,1.53
2022-12-24T03:35:01.964Z,1.77
2022-12-24T03:37:29.881Z,1.37
2022-12-24T03:39:59.822Z,1.00
2022-12-24T03:42:27.749Z,1.30
2022-12-24T03:44:55.667Z,1.40
2022-12-24T03:47:25.571Z,1.70
2022-12-24T03:49:54.805Z,1.47
2022-12-24T03:52:22.769Z,1.83
2022-12-24T03:54:50.644Z,1.77
2022-12-24T03:57:18.460Z,1.07
2022-12-24T03:59:46.286Z,1.63
2022-12-24T04:02:14.343Z,1.33
2022-12-24T04:04:42.527Z,1.90
2022-12-24T04:07:11.897Z,2.00
2022-12-24T04:09:40.619Z,2.20
2022-12-24T04:12:09.016Z,1.87
2022-12-24T04:14:36.893Z,1.27
2022-12-24T04:17:07.204Z,1.80
2022-12-24T04:19:37.239Z,2.00
2022-12-24T04:22:05.142Z,2.00
2022-12-24T04:24:36.246Z,2.13
2022-12-24T04:27:06.588Z,2.70
2022-12-24T04:29:34.474Z,1.37
2022-12-24T04:32:02.715Z,1.90
2022-12-24T04:34:30.653Z,2.00
2022-12-24T04:36:58.686Z,1.97
2022-12-24T04:39:26.600Z,2.03
2022-12-24T04:41:55.780Z,1.97
2022-12-24T04:44:23.665Z,2.10
2022-12-24T04:46:51.496Z,1.30
2022-12-24T04:49:19.411Z,1.93
2022-12-24T04:51:47.185Z,2.00
2022-12-24T04:54:14.969Z,1.73
2022-12-24T04:56:42.854Z,2.07
2022-12-24T04:59:12.257Z,1.83
2022-12-24T05:01:40.141Z,2.10
2022-12-24T05:04:08.759Z,1.50
2022-12-24T05:06:36.597Z,2.43
2022-12-24T05:09:04.685Z,2.67
2022-12-24T05:11:32.850Z,1.90
2022-12-24T05:14:00.793Z,1.87
2022-12-24T05:16:30.235Z,2.10
2022-12-24T05:18:58.237Z,1.97
2022-12-24T05:21:26.520Z,2.10
2022-12-24T05:24:12.310Z,1.93
2022-12-24T05:26:43.547Z,2.07
2022-12-24T05:29:13.164Z,1.60
2022-12-24T05:31:43.899Z,1.90
2022-12-24T05:34:12.330Z,1.90
2022-12-24T05:36:40.608Z,1.50
2022-12-24T05:39:15.187Z,1.57
2022-12-24T05:41:43.861Z,1.73
2022-12-24T05:44:11.793Z,1.83
2022-12-24T05:46:43.753Z,2.50
2022-12-24T05:49:11.679Z,2.37
2022-12-24T05:51:40.306Z,1.60
2022-12-24T05:54:08.689Z,2.83
2022-12-24T05:56:36.619Z,2.60
2022-12-24T05:59:04.766Z,2.80
2022-12-24T06:01:32.692Z,2.07
2022-12-24T06:04:03.578Z,2.40
2022-12-24T06:06:31.646Z,2.00
2022-12-24T06:08:59.548Z,2.20
2022-12-24T06:11:29.549Z,2.77
2022-12-24T06:13:58.267Z,2.20
2022-12-24T06:16:27.101Z,2.47
2022-12-24T06:18:55.525Z,2.00
2022-12-24T06:21:24.841Z,1.63
2022-12-24T06:23:53.175Z,1.70
2022-12-24T06:26:23.431Z,2.37
2022-12-24T06:28:52.391Z,2.47
2022-12-24T06:31:23.234Z,2.33
2022-12-24T06:33:51.594Z,2.53
2022-12-24T06:36:21.786Z,2.33
2022-12-24T06:38:52.096Z,2.40
2022-12-24T06:41:20.151Z,2.27
2022-12-24T06:43:50.162Z,1.73
2022-12-24T06:46:19.048Z,1.90
2022-12-24T06:48:47.687Z,1.60
2022-12-24T06:51:19.882Z,1.87
2022-12-24T06:53:48.113Z,2.00
2022-12-24T06:56:18.044Z,2.20
2022-12-24T06:58:45.932Z,1.93
2022-12-24T07:01:16.679Z,1.87
2022-12-24T07:03:45.380Z,2.00
2022-12-24T07:06:18.686Z,1.77
2022-12-24T07:08:46.735Z,1.90
2022-12-24T07:11:14.597Z,2.47
2022-12-24T07:13:43.820Z,2.40
2022-12-24T07:16:11.878Z,2.80
2022-12-24T07:18:44.016Z,2.20
2022-12-24T07:21:12.268Z,2.23
2022-12-24T07:24:06.223Z,1.90
2022-12-24T07:26:34.700Z,1.90
2022-12-24T07:29:03.884Z,2.30
2022-12-24T07:31:31.825Z,1.90
2022-12-24T07:33:59.935Z,1.90
2022-12-24T07:36:28.267Z,2.60
2022-12-24T07:38:58.632Z,1.50
2022-12-24T07:41:26.529Z,2.00
2022-12-24T07:43:54.510Z,2.50
2022-12-24T07:46:26.362Z,1.70
2022-12-24T07:48:54.393Z,2.00
2022-12-24T07:51:22.155Z,1.60
2022-12-24T07:53:50.061Z,2.13
2022-12-24T07:56:18.397Z,1.50
2022-12-24T07:58:46.392Z,1.73
2022-12-24T08:01:22.320Z,1.40
2022-12-24T08:03:55.451Z,1.80
2022-12-24T08:06:23.625Z,2.20
2022-12-24T08:08:51.646Z,2.60
2022-12-24T08:11:19.538Z,2.10
2022-12-24T08:13:47.397Z,2.40
2022-12-24T08:16:15.390Z,2.50
2022-12-24T08:18:43.361Z,3.00
2022-12-24T08:21:12.629Z,2.33
2022-12-24T08:23:40.602Z,1.53
2022-12-24T08:26:09.375Z,1.97
2022-12-24T08:28:37.475Z,2.30
2022-12-24T08:31:06.235Z,2.60
2022-12-24T08:33:36.399Z,2.13
2022-12-24T08:36:04.736Z,2.70
2022-12-24T08:38:33.932Z,1.53
2022-12-24T08:41:01.842Z,2.03
2022-12-24T08:43:32.386Z,2.70
2022-12-24T08:46:04.581Z,2.27
2022-12-24T08:48:32.687Z,1.30
2022-12-24T08:51:00.672Z,2.20
2022-12-24T08:53:28.477Z,2.20
2022-12-24T08:56:04.096Z,2.40
2022-12-24T08:58:33.392Z,2.87
2022-12-24T09:01:02.105Z,2.83
2022-12-24T09:03:30.735Z,2.00
2022-12-24T09:05:58.633Z,2.33
2022-12-24T09:08:26.405Z,2.20
2022-12-24T09:10:54.441Z,1.60
2022-12-24T09:13:23.807Z,1.97
2022-12-24T09:15:55.429Z,2.80
2022-12-24T09:18:23.554Z,2.40
2022-12-24T09:20:57.070Z,2.83
2022-12-24T09:23:25.427Z,2.37
2022-12-24T09:25:53.279Z,2.77
2022-12-24T09:28:22.927Z,3.63
2022-12-24T09:30:58.948Z,3.60
2022-12-24T09:33:27.340Z,3.30
2022-12-24T09:35:55.206Z,2.80
2022-12-24T09:38:25.562Z,2.90
2022-12-24T09:40:55.895Z,2.63
2022-12-24T09:43:32.599Z,3.03
2022-12-24T09:46:10.169Z,2.30
2022-12-24T09:48:43.523Z,2.67
2022-12-24T09:51:13.615Z,2.40
2022-12-24T09:53:47.029Z,2.70
2022-12-24T09:56:19.329Z,3.37
2022-12-24T09:58:51.999Z,2.77
2022-12-24T10:01:22.167Z,2.37
2022-12-24T10:03:50.277Z,2.00
2022-12-24T10:06:27.050Z,2.30
2022-12-24T10:09:12.140Z,2.70
2022-12-24T10:11:48.130Z,2.63
2022-12-24T10:14:28.349Z,2.53
2022-12-24T10:17:11.831Z,2.97
2022-12-24T10:19:51.583Z,1.80
2022-12-24T10:22:27.482Z,2.63
2022-12-24T10:25:04.841Z,2.10
2022-12-24T10:27:39.857Z,2.20
2022-12-24T10:30:17.416Z,2.33
2022-12-24T10:32:48.375Z,2.47
2022-12-24T10:35:24.539Z,1.73
2022-12-24T10:37:53.744Z,2.10
2022-12-24T10:40:33.454Z,1.80
2022-12-24T10:43:01.518Z,1.97
2022-12-24T10:45:38.681Z,1.73
2022-12-24T10:48:12.756Z,2.30
2022-12-24T10:50:44.133Z,1.90
2022-12-24T10:53:18.973Z,2.80
2022-12-24T10:55:49.702Z,3.17
2022-12-24T10:58:20.650Z,1.73
2022-12-24T11:00:53.963Z,2.53
2022-12-24T11:03:31.863Z,2.00
2022-12-24T11:06:06.173Z,2.40
2022-12-24T11:08:34.940Z,1.60
2022-12-24T11:11:08.357Z,1.70
2022-12-24T11:13:39.899Z,2.10
2022-12-24T11:16:18.937Z,4.77
2022-12-24T11:18:51.710Z,2.17
2022-12-24T11:21:25.749Z,9.57
2022-12-24T11:23:56.972Z,3.43
2022-12-24T11:26:27.241Z,3.70
2022-12-24T11:29:13.464Z,3.40
2022-12-24T11:31:43.455Z,15.73
2022-12-24T11:34:28.165Z,2.93
2022-12-24T11:37:14.564Z,3.20
2022-12-24T11:39:48.122Z,3.27
2022-12-24T11:42:32.314Z,3.77
2022-12-24T11:45:03.083Z,2.57
2022-12-24T11:47:37.500Z,3.17
2022-12-24T11:50:24.029Z,2.90
2022-12-24T11:52:56.554Z,3.10
2022-12-24T11:55:36.948Z,2.90
2022-12-24T11:58:17.970Z,3.03
2022-12-24T12:00:48.026Z,2.27
2022-12-24T12:03:30.185Z,2.53
2022-12-24T12:06:00.902Z,2.67
2022-12-24T12:08:30.163Z,3.17
2022-12-24T12:11:00.811Z,2.40
2022-12-24T12:13:34.034Z,2.60
2022-12-24T12:16:12.251Z,2.43
2022-12-24T12:18:46.504Z,2.43
2022-12-24T12:21:18.232Z,2.00
2022-12-24T12:23:50.655Z,2.10
2022-12-24T12:26:24.934Z,2.60
2022-12-24T12:28:59.059Z,2.83
2022-12-24T12:31:31.437Z,3.23
2022-12-24T12:34:05.924Z,4.07
2022-12-24T12:36:40.410Z,3.63
2022-12-24T12:39:10.857Z,2.60
2022-12-24T12:41:55.640Z,2.17
2022-12-24T12:44:41.326Z,1.90
2022-12-24T12:47:32.738Z,2.03
2022-12-24T12:50:11.331Z,2.00
2022-12-24T12:53:03.258Z,1.87
2022-12-24T12:55:42.696Z,2.17
2022-12-24T12:58:18.580Z,2.63
2022-12-24T13:00:50.550Z,2.67
2022-12-24T13:03:45.393Z,2.40
2022-12-24T13:06:27.858Z,3.10
2022-12-24T13:09:22.877Z,3.23
2022-12-24T13:12:05.103Z,2.43
2022-12-24T13:14:46.546Z,3.43
2022-12-24T13:17:34.016Z,3.40
2022-12-24T13:20:25.467Z,2.40
2022-12-24T13:23:00.126Z,3.47
2022-12-24T13:25:36.519Z,3.23
2022-12-24T13:28:33.617Z,3.40
2022-12-24T13:31:31.613Z,4.00
2022-12-24T13:34:01.519Z,3.03
2022-12-24T13:37:07.778Z,2.80
2022-12-24T13:40:14.909Z,2.87
2022-12-24T13:43:07.042Z,2.33
2022-12-24T13:45:46.617Z,3.50
2022-12-24T13:48:28.881Z,2.83
2022-12-24T13:50:59.984Z,4.00
2022-12-24T13:53:32.417Z,3.70
2022-12-24T13:56:07.785Z,3.57
2022-12-24T13:58:37.435Z,3.67
2022-12-24T14:01:09.791Z,3.87
2022-12-24T14:03:43.323Z,3.90
2022-12-24T14:06:13.978Z,4.73
2022-12-24T14:08:44.823Z,3.40
2022-12-24T14:11:17.250Z,3.87
2022-12-24T14:14:09.769Z,3.63
2022-12-24T14:16:45.718Z,4.17
2022-12-24T14:19:16.207Z,3.53
2022-12-24T14:21:48.957Z,4.17
2022-12-24T14:24:19.220Z,3.40
2022-12-24T14:26:50.982Z,4.17
2022-12-24T14:29:26.271Z,3.17
2022-12-24T14:31:55.212Z,3.90
2022-12-24T14:34:23.740Z,4.20
2022-12-24T14:36:54.656Z,3.37
2022-12-24T14:39:27.346Z,3.83
2022-12-24T14:42:10.262Z,3.17
2022-12-24T14:44:47.249Z,3.37
2022-12-24T14:47:28.319Z,3.13
2022-12-24T14:50:20.035Z,3.17
2022-12-24T14:53:09.323Z,4.13
2022-12-24T14:55:45.287Z,3.70
2022-12-24T14:58:32.244Z,4.27
2022-12-24T15:01:04.372Z,4.20
2022-12-24T15:03:33.703Z,4.27
2022-12-24T15:06:05.154Z,4.30
2022-12-24T15:08:37.725Z,4.77
2022-12-24T15:11:08.197Z,3.83
2022-12-24T15:13:40.077Z,3.23
2022-12-24T15:16:11.061Z,3.70
2022-12-24T15:18:43.103Z,4.10
2022-12-24T15:21:19.247Z,4.20
2022-12-24T15:23:49.692Z,4.27
2022-12-24T15:26:23.750Z,4.47
2022-12-24T15:29:01.911Z,4.03
2022-12-24T15:31:31.344Z,4.20
2022-12-24T15:34:00.360Z,2.83
2022-12-24T15:36:32.393Z,2.90
2022-12-24T15:39:02.860Z,3.20
2022-12-24T15:41:38.169Z,2.70
2022-12-24T15:44:07.814Z,4.93
2022-12-24T15:46:35.931Z,5.53
2022-12-24T15:49:04.512Z,4.20
2022-12-24T15:51:40.227Z,3.20
2022-12-24T15:54:14.825Z,2.73
2022-12-24T15:56:45.441Z,4.30
2022-12-24T15:59:27.066Z,4.47
2022-12-24T16:01:55.009Z,4.87
2022-12-24T16:04:25.421Z,4.80
2022-12-24T16:06:55.640Z,3.77
2022-12-24T16:09:43.989Z,3.17
2022-12-24T16:12:18.463Z,3.47
2022-12-24T16:14:54.558Z,2.90
2022-12-24T16:17:25.263Z,2.63
2022-12-24T16:19:56.855Z,3.80
2022-12-24T16:22:35.391Z,4.07
2022-12-24T16:25:22.974Z,4.27
2022-12-24T16:27:51.048Z,3.60
2022-12-24T16:30:20.914Z,3.03
2022-12-24T16:32:50.982Z,3.60
2022-12-24T16:35:28.200Z,3.07
2022-12-24T16:37:56.662Z,3.90
2022-12-24T16:40:27.613Z,3.57
2022-12-24T16:43:14.385Z,4.90
2022-12-24T16:45:45.420Z,3.70
2022-12-24T16:48:20.652Z,4.20
2022-12-24T16:50:49.430Z,4.83
2022-12-24T16:53:18.141Z,5.00
2022-12-24T16:55:47.527Z,5.03
2022-12-24T16:58:17.756Z,4.50
2022-12-24T17:00:47.573Z,5.17
2022-12-24T17:03:15.772Z,6.67
2022-12-24T17:05:46.421Z,4.67
2022-12-24T17:08:15.049Z,5.37
2022-12-24T17:10:51.741Z,5.43
2022-12-24T17:13:22.018Z,4.40
2022-12-24T17:15:51.426Z,4.20
2022-12-24T17:18:19.659Z,4.80
2022-12-24T17:20:57.850Z,5.20
2022-12-24T17:23:25.896Z,4.30
2022-12-24T17:25:53.870Z,4.70
2022-12-24T17:28:23.016Z,4.77
2022-12-24T17:30:52.445Z,4.50
2022-12-24T17:33:20.262Z,4.67
2022-12-24T17:35:49.239Z,4.50
2022-12-24T17:38:17.110Z,3.77
2022-12-24T17:40:45.284Z,4.33
2022-12-24T17:43:13.220Z,5.90
2022-12-24T17:45:42.448Z,6.07
2022-12-24T17:48:11.707Z,5.43
2022-12-24T17:50:40.630Z,4.80
2022-12-24T17:53:09.013Z,4.37
2022-12-24T17:55:41.496Z,6.27
2022-12-24T17:58:09.631Z,5.03
2022-12-24T18:00:38.428Z,6.77
2022-12-24T18:03:06.379Z,7.53
2022-12-24T18:05:36.637Z,6.57
2022-12-24T18:08:05.062Z,6.70
2022-12-24T18:10:33.301Z,5.97
2022-12-24T18:13:01.281Z,7.50
2022-12-24T18:15:34.867Z,5.83
2022-12-24T18:18:03.532Z,5.80
2022-12-24T18:20:32.110Z,9.80
2022-12-24T18:23:01.397Z,9.70
2022-12-24T18:25:29.638Z,7.50
2022-12-24T18:27:57.579Z,9.27
2022-12-24T18:30:27.855Z,9.17
2022-12-24T18:32:56.195Z,9.87
2022-12-24T18:35:24.891Z,6.97
2022-12-24T18:37:53.452Z,7.13
2022-12-24T18:40:22.966Z,6.60
2022-12-24T18:42:50.871Z,6.37
2022-12-24T18:45:18.798Z,6.60
2022-12-24T18:47:46.634Z,6.50
2022-12-24T18:50:14.533Z,6.40
2022-12-24T18:52:42.361Z,8.53
2022-12-24T18:55:11.190Z,6.30
2022-12-24T18:57:40.398Z,7.10
2022-12-24T19:00:09.775Z,7.10
2022-12-24T19:02:37.772Z,7.57
2022-12-24T19:05:06.333Z,6.57
2022-12-24T19:07:34.325Z,6.40
2022-12-24T19:10:02.390Z,8.03
2022-12-24T19:12:30.274Z,9.03
2022-12-24T19:14:59.616Z,8.50
2022-12-24T19:17:27.537Z,8.13
2022-12-24T19:19:55.459Z,8.20
2022-12-24T19:22:23.308Z,8.23
2022-12-24T19:24:51.946Z,6.83
2022-12-24T19:27:19.739Z,6.07
2022-12-24T19:29:47.668Z,7.30
2022-12-24T19:32:17.009Z,8.30
2022-12-24T19:34:44.857Z,5.57
2022-12-24T19:37:12.785Z,5.80
2022-12-24T19:39:40.703Z,6.50
2022-12-24T19:42:08.611Z,4.77
2022-12-24T19:44:36.474Z,5.67
2022-12-24T19:47:04.342Z,4.93
2022-12-24T19:49:33.517Z,5.10
2022-12-24T19:52:01.616Z,5.83
2022-12-24T19:54:31.710Z,4.33
2022-12-24T19:56:59.621Z,4.00
2022-12-24T19:59:27.524Z,3.83
2022-12-24T20:01:56.194Z,4.43
2022-12-24T20:04:24.221Z,5.60
2022-12-24T20:06:59.658Z,3.47
2022-12-24T20:09:28.954Z,6.40
2022-12-24T20:11:59.213Z,6.70
2022-12-24T20:14:29.433Z,5.53
2022-12-24T20:16:57.495Z,6.00
2022-12-24T20:19:25.395Z,8.23
2022-12-24T20:21:56.664Z,6.77
2022-12-24T20:24:27.720Z,5.93
2022-12-24T20:26:55.595Z,6.33
2022-12-24T20:29:25.949Z,6.13
2022-12-24T20:31:53.855Z,7.80
2022-12-24T20:34:21.790Z,6.00
2022-12-24T20:36:49.724Z,5.50
2022-12-24T20:39:18.917Z,5.50
2022-12-24T20:41:46.798Z,5.53
2022-12-24T20:44:14.705Z,4.30
2022-12-24T20:46:42.700Z,4.20
2022-12-24T20:49:12.323Z,3.53
2022-12-24T20:51:40.622Z,2.77
2022-12-24T20:54:08.686Z,2.57
2022-12-24T20:56:37.934Z,2.93
2022-12-24T20:59:05.762Z,2.60
2022-12-24T21:01:34.395Z,2.30
2022-12-24T21:04:04.840Z,2.80
2022-12-24T21:06:33.637Z,2.57
2022-12-24T21:09:01.966Z,2.40
2022-12-24T21:11:47.175Z,2.30
2022-12-24T21:14:18.178Z,1.80
2022-12-24T21:16:46.787Z,2.50
2022-12-24T21:19:18.047Z,2.00
2022-12-24T21:21:46.957Z,2.30
2022-12-24T21:24:15.276Z,2.30
2022-12-24T21:26:43.293Z,2.20
2022-12-24T21:29:11.547Z,2.20
2022-12-24T21:31:40.799Z,2.40
2022-12-24T21:34:09.347Z,2.43
2022-12-24T21:36:37.208Z,2.20
2022-12-24T21:39:06.004Z,2.20
2022-12-24T21:41:33.803Z,2.57
2022-12-24T21:44:02.675Z,2.43
2022-12-24T21:46:30.737Z,2.37
2022-12-24T21:49:17.397Z,1.77
2022-12-24T21:51:48.703Z,2.17
2022-12-24T21:54:28.589Z,1.90
2022-12-24T21:57:16.581Z,1.90
2022-12-24T21:59:44.700Z,2.00
2022-12-24T22:02:13.992Z,2.00
2022-12-24T22:04:44.180Z,1.43
2022-12-24T22:07:38.357Z,2.30
2022-12-24T22:10:25.112Z,2.10
2022-12-24T22:12:53.504Z,2.20
2022-12-24T22:15:22.414Z,2.87
2022-12-24T22:17:50.291Z,2.70
2022-12-24T22:20:19.862Z,1.90
2022-12-24T22:22:48.766Z,1.47
2022-12-24T22:25:16.976Z,1.60
2022-12-24T22:27:44.933Z,1.73
2022-12-24T22:30:13.668Z,2.43
2022-12-24T22:32:41.607Z,2.40
2022-12-24T22:35:10.010Z,3.07
2022-12-24T22:37:39.333Z,2.43
2022-12-24T22:40:08.415Z,2.93
2022-12-24T22:42:40.968Z,2.90
2022-12-24T22:45:12.601Z,2.67
2022-12-24T22:47:43.584Z,2.40
2022-12-24T22:50:12.562Z,2.33
2022-12-24T22:52:41.927Z,2.60
2022-12-24T22:55:10.828Z,2.20
2022-12-24T22:57:41.270Z,2.17
2022-12-24T23:00:14.122Z,2.60
2022-12-24T23:02:42.238Z,2.10
2022-12-24T23:05:14.324Z,2.43
2022-12-24T23:07:43.673Z,2.97
2022-12-24T23:10:11.773Z,3.57
2022-12-24T23:12:56.231Z,3.37
2022-12-24T23:15:24.295Z,2.80
2022-12-24T23:17:52.137Z,2.90
2022-12-24T23:20:20.054Z,2.87
2022-12-24T23:22:51.418Z,2.97
2022-12-24T23:25:19.386Z,2.10
2022-12-24T23:27:47.358Z,3.10
2022-12-24T23:30:17.778Z,2.63
2022-12-24T23:32:45.724Z,2.40
2022-12-24T23:35:13.618Z,2.37
2022-12-24T23:37:41.489Z,3.10
2022-12-24T23:40:11.982Z,2.97
2022-12-24T23:42:39.847Z,3.30
2022-12-24T23:45:10.973Z,3.03
2022-12-24T23:47:38.899Z,2.93
2022-12-24T23:50:08.313Z,2.53
2022-12-24T23:52:36.320Z,2.97
2022-12-24T23:55:04.581Z,2.70
2022-12-24T23:57:33.825Z,3.33
